Time;durP1;ratioP1;P1;durP2;ratioP2;P2;SDS_P1;SDS_P2;PMS_P1;PMS_P2;Temp;Humidity;BMP_temperature;BMP_pressure;BME280_temperature;BME280_humidity;BME280_pressure;Samples;Min_cycle;Max_cycle;Signal;HPM_P1;HPM_P2
2022/08/17 00:00:10;;;;;;;;;;;24.00;94.30;23.80;98971.00;;;;345650;28;92615;-91
2022/08/17 00:00:44;;;;;;;;;;;24.00;94.30;23.80;98970.00;;;;346253;28;82545;-90
2022/08/17 00:01:04;;;;;;;;;;;24.00;94.30;23.80;98966.00;;;;348432;27;91145;-90
2022/08/17 00:01:24;;;;;;;;;;;24.00;94.30;23.80;98969.00;;;;346028;28;83314;-90
2022/08/17 00:01:38;;;;;;;;;;;24.00;94.40;23.70;98968.00;;;;348470;27;91330;-90
2022/08/17 00:02:03;;;;;;;;;;;24.00;94.30;23.70;98962.00;;;;348949;27;83488;-90
2022/08/17 00:02:35;;;;;;;;;;;24.00;94.40;23.80;98968.00;;;;347137;28;91365;-90
2022/08/17 00:03:13;;;;;;;;;;;23.90;94.40;23.80;98962.00;;;;347563;28;83435;-90
2022/08/17 00:03:37;;;;;;;;;;;24.00;94.40;23.80;98965.00;;;;348554;27;91494;-91
2022/08/17 00:03:49;;;;;;;;;;;23.90;94.50;23.80;98961.00;;;;347210;28;83431;-90
2022/08/17 00:04:01;;;;;;;;;;;23.90;94.50;23.80;98960.00;;;;349864;27;91249;-90
2022/08/17 00:04:20;;;;;;;;;;;23.90;94.60;23.80;98958.00;;;;350431;27;83266;-90
2022/08/17 00:04:31;;;;;;;;;;;23.90;94.60;23.80;98956.00;;;;347006;28;90132;-90
2022/08/17 00:04:43;;;;;;;;;;;23.90;94.60;23.80;98960.00;;;;346105;28;83492;-90
2022/08/17 00:05:01;;;;;;;;;;;23.90;94.60;23.80;98951.00;;;;348475;27;91767;-90
2022/08/17 00:05:14;;;;;;;;;;;23.90;94.60;23.80;98948.00;;;;346239;28;83382;-90
2022/08/17 00:05:27;;;;;;;;;;;23.90;94.70;23.70;98955.00;;;;347099;28;90349;-90
2022/08/17 00:05:54;;;;;;;;;;;23.90;94.70;23.70;98954.00;;;;347467;28;83323;-90
2022/08/17 00:06:12;;;;;;;;;;;23.90;94.70;23.70;98948.00;;;;348472;27;91811;-90
2022/08/17 00:06:26;;;;;;;;;;;23.90;94.70;23.70;98951.00;;;;346218;28;82455;-90
2022/08/17 00:06:38;;;;;;;;;;;23.90;94.80;23.70;98951.00;;;;345661;28;92571;-91
2022/08/17 00:06:52;;;;;;;;;;;23.90;94.80;23.80;98949.00;;;;347473;28;83357;-90
2022/08/17 00:07:03;;;;;;;;;;;23.80;94.70;23.80;98950.00;;;;345633;28;90119;-90
2022/08/17 00:07:15;;;;;;;;;;;23.90;94.80;23.80;98951.00;;;;348984;27;83424;-90
2022/08/17 00:07:27;;;;;;;;;;;23.90;94.80;23.80;98954.00;;;;347068;28;91403;-90
2022/08/17 00:07:39;;;;;;;;;;;23.90;94.90;23.80;98950.00;;;;348968;27;83340;-91
2022/08/17 00:07:50;;;;;;;;;;;23.80;94.90;23.80;98954.00;;;;347089;28;88715;-90
2022/08/17 00:08:02;;;;;;;;;;;23.90;94.90;23.80;98954.00;;;;347442;28;83385;-90
2022/08/17 00:08:15;;;;;;;;;;;23.80;94.90;23.70;98959.00;;;;347136;28;91562;-90
2022/08/17 00:08:30;;;;;;;;;;;23.80;95.00;23.70;98955.00;;;;346174;28;83457;-90
2022/08/17 00:08:52;;;;;;;;;;;23.80;95.00;23.70;98957.00;;;;347024;28;92246;-90
2022/08/17 00:09:04;;;;;;;;;;;23.80;95.00;23.70;98961.00;;;;344712;28;82493;-90
2022/08/17 00:09:16;;;;;;;;;;;23.80;95.10;23.70;98960.00;;;;344373;28;91601;-90
2022/08/17 00:09:29;;;;;;;;;;;23.90;95.10;23.70;98955.00;;;;347524;28;83387;-90
2022/08/17 00:09:41;;;;;;;;;;;23.80;95.10;23.70;98965.00;;;;348498;27;91697;-90
2022/08/17 00:09:53;;;;;;;;;;;23.80;95.10;23.70;98951.00;;;;346182;28;82371;-90
2022/08/17 00:10:05;;;;;;;;;;;23.80;95.10;23.70;98964.00;;;;344141;28;91423;-90
2022/08/17 00:10:17;;;;;;;;;;;23.80;95.10;23.70;98960.00;;;;349161;27;82407;-90
2022/08/17 00:10:29;;;;;;;;;;;23.80;95.10;23.70;98962.00;;;;347023;28;91616;-90
2022/08/17 00:10:43;;;;;;;;;;;23.80;95.10;23.60;98959.00;;;;347603;28;82354;-91
2022/08/17 00:10:55;;;;;;;;;;;23.80;95.30;23.70;98968.00;;;;346858;28;91358;-91
2022/08/17 00:11:09;;;;;;;;;;;23.80;95.20;23.70;98968.00;;;;344787;28;82445;-90
2022/08/17 00:11:28;;;;;;;;;;;23.80;95.20;23.70;98965.00;;;;345692;28;91105;-90
2022/08/17 00:11:41;;;;;;;;;;;23.80;95.20;23.60;98962.00;;;;347430;28;83161;-90
2022/08/17 00:12:13;;;;;;;;;;;23.80;95.30;23.70;98973.00;;;;347088;28;90423;-90
2022/08/17 00:12:45;;;;;;;;;;;23.80;95.30;23.80;98976.00;;;;347527;28;83400;-90
2022/08/17 00:12:57;;;;;;;;;;;23.80;95.30;23.80;98971.00;;;;345652;28;90308;-90
2022/08/17 00:13:12;;;;;;;;;;;23.80;95.30;23.80;98968.00;;;;346128;28;83357;-90
2022/08/17 00:13:30;;;;;;;;;;;23.80;95.30;23.70;98968.00;;;;345738;28;89429;-90
2022/08/17 00:13:45;;;;;;;;;;;23.80;95.40;23.70;98970.00;;;;344701;28;83411;-90
2022/08/17 00:14:13;;;;;;;;;;;23.80;95.40;23.70;98966.00;;;;345592;28;91435;-90
2022/08/17 00:14:24;;;;;;;;;;;23.80;95.40;23.80;98966.00;;;;347570;28;83269;-91
2022/08/17 00:14:36;;;;;;;;;;;23.80;95.50;23.80;98963.00;;;;346697;28;91000;-90
2022/08/17 00:14:49;;;;;;;;;;;23.80;95.50;23.70;98960.00;;;;347508;28;83261;-91
2022/08/17 00:15:00;;;;;;;;;;;23.80;95.50;23.70;98967.00;;;;347094;28;91376;-90
2022/08/17 00:15:13;;;;;;;;;;;23.80;95.50;23.70;98965.00;;;;346044;28;83519;-90
2022/08/17 00:15:25;;;;;;;;;;;23.80;95.50;23.70;98966.00;;;;342943;28;92038;-91
2022/08/17 00:15:37;;;;;;;;;;;23.80;95.40;23.80;98960.00;;;;346277;28;82228;-90
2022/08/17 00:15:49;;;;;;;;;;;23.80;95.50;23.70;98967.00;;;;345672;28;92194;-91
2022/08/17 00:16:05;;;;;;;;;;;23.80;95.50;23.60;98957.00;;;;346142;28;82485;-90
2022/08/17 00:16:21;;;;;;;;;;;23.80;95.50;23.70;98964.00;;;;345608;28;91252;-91
2022/08/17 00:16:53;;;;;;;;;;;23.80;95.60;23.80;98969.00;;;;346070;28;83592;-90
2022/08/17 00:17:08;;;;;;;;;;;23.80;95.70;23.80;98963.00;;;;345510;28;91257;-91
2022/08/17 00:17:20;;;;;;;;;;;23.80;95.70;23.80;98958.00;;;;348883;27;83299;-91
2022/08/17 00:17:32;;;;;;;;;;;23.80;95.60;23.80;98966.00;;;;348495;27;90469;-90
2022/08/17 00:17:46;;;;;;;;;;;23.80;95.70;23.90;98963.00;;;;347476;28;83391;-91
2022/08/17 00:17:58;;;;;;;;;;;23.80;95.70;23.70;98967.00;;;;347034;28;92363;-90
2022/08/17 00:18:10;;;;;;;;;;;23.80;95.90;23.80;98966.00;;;;346121;28;83374;-90
2022/08/17 00:18:41;;;;;;;;;;;23.80;95.80;23.80;98965.00;;;;345784;28;90582;-91
2022/08/17 00:19:14;;;;;;;;;;;23.80;95.70;23.70;98965.00;;;;347479;28;82486;-90
2022/08/17 00:19:26;;;;;;;;;;;23.80;95.70;23.70;98963.00;;;;348425;27;92662;-90
2022/08/17 00:19:38;;;;;;;;;;;23.80;95.90;23.70;98965.00;;;;347474;28;83434;-90
2022/08/17 00:22:46;;;;;;;;;;;23.80;96.10;23.70;98973.00;;;;338392;28;83647;-89
2022/08/17 00:23:09;;;;;;;;;;;23.80;96.10;23.60;98969.00;;;;342876;28;89640;-89
2022/08/17 00:23:21;;;;;;;;;;;23.70;96.10;23.70;98965.00;;;;335114;28;82542;-89
2022/08/17 00:23:33;;;;;;;;;;;23.70;96.10;23.80;98968.00;;;;341538;28;89305;-89
2022/08/17 00:23:45;;;;;;;;;;;23.70;96.10;23.70;98977.00;;;;343368;28;83261;-89
2022/08/17 00:24:00;;;;;;;;;;;23.70;96.00;23.80;98965.00;;;;344322;28;92737;-89
2022/08/17 00:24:12;;;;;;;;;;;23.70;96.10;23.80;98974.00;;;;343373;28;83413;-89
2022/08/17 00:24:24;;;;;;;;;;;23.70;96.20;23.80;98970.00;;;;341875;28;91095;-89
2022/08/17 00:24:35;;;;;;;;;;;23.70;96.30;23.80;98966.00;;;;342061;28;83386;-89
2022/08/17 00:24:47;;;;;;;;;;;23.70;96.20;23.80;98974.00;;;;341619;28;91284;-89
2022/08/17 00:24:59;;;;;;;;;;;23.80;96.30;23.80;98976.00;;;;336446;28;83856;-89
2022/08/17 00:25:14;;;;;;;;;;;23.80;96.20;23.80;98980.00;;;;342872;28;91911;-89
2022/08/17 00:25:26;;;;;;;;;;;23.80;96.20;23.80;98976.00;;;;343207;28;83188;-88
2022/08/17 00:25:39;;;;;;;;;;;23.80;96.10;23.80;98969.00;;;;335938;28;92766;-89
2022/08/17 00:25:51;;;;;;;;;;;23.80;96.20;23.80;98975.00;;;;343338;28;83351;-89
2022/08/17 00:26:03;;;;;;;;;;;23.80;96.20;23.80;98968.00;;;;342900;28;92262;-89
2022/08/17 00:26:15;;;;;;;;;;;23.80;96.30;23.80;98975.00;;;;336470;28;83547;-89
2022/08/17 00:26:47;;;;;;;;;;;23.80;96.30;23.60;98973.00;;;;344386;28;90193;-90
2022/08/17 00:26:58;;;;;;;;;;;23.80;96.20;23.70;98974.00;;;;341913;28;83448;-89
2022/08/17 00:27:10;;;;;;;;;;;23.80;96.10;23.70;98977.00;;;;341579;28;91725;-89
2022/08/17 00:27:22;;;;;;;;;;;23.80;96.20;23.80;98976.00;;;;340683;28;83422;-89
2022/08/17 00:27:34;;;;;;;;;;;23.80;96.20;23.80;98982.00;;;;340238;28;90620;-89
2022/08/17 00:27:46;;;;;;;;;;;23.80;96.20;23.70;98977.00;;;;335143;29;83475;-89
2022/08/17 00:27:58;;;;;;;;;;;23.80;96.20;23.70;98978.00;;;;342878;28;92301;-89
2022/08/17 00:28:11;;;;;;;;;;;23.80;96.20;23.80;98982.00;;;;342072;28;82569;-89
2022/08/17 00:28:23;;;;;;;;;;;23.80;96.20;23.80;98983.00;;;;335915;28;90189;-87
2022/08/17 00:28:37;;;;;;;;;;;23.80;96.20;23.80;98981.00;;;;342125;28;82548;-90
2022/08/17 00:28:49;;;;;;;;;;;23.80;96.30;23.80;98983.00;;;;341551;28;92554;-89
2022/08/17 00:29:03;;;;;;;;;;;23.80;96.30;23.80;98980.00;;;;342011;28;83432;-89
2022/08/17 00:29:15;;;;;;;;;;;23.80;96.20;23.80;98992.00;;;;341600;28;91669;-89
2022/08/17 00:29:30;;;;;;;;;;;23.80;96.10;23.80;98984.00;;;;340572;28;83381;-89
2022/08/17 00:29:44;;;;;;;;;;;23.80;96.00;23.80;98989.00;;;;340184;28;90560;-89
2022/08/17 00:29:56;;;;;;;;;;;23.80;96.00;23.70;98984.00;;;;336581;28;82355;-89
2022/08/17 00:30:09;;;;;;;;;;;23.80;96.10;23.70;98980.00;;;;336015;28;92375;-89
2022/08/17 00:30:21;;;;;;;;;;;23.80;96.10;23.70;98986.00;;;;343253;28;83479;-89
2022/08/17 00:30:34;;;;;;;;;;;23.80;96.10;23.70;98991.00;;;;342988;28;89192;-89
2022/08/17 00:31:05;;;;;;;;;;;23.80;96.10;23.70;98991.00;;;;335197;29;83496;-90
2022/08/17 00:31:17;;;;;;;;;;;23.80;96.20;23.80;98986.00;;;;341659;28;88712;-89
2022/08/17 00:31:29;;;;;;;;;;;23.80;96.10;23.80;98986.00;;;;343380;28;83246;-89
2022/08/17 00:31:40;;;;;;;;;;;23.80;96.20;23.90;98989.00;;;;333398;29;91662;-89
2022/08/17 00:31:52;;;;;;;;;;;23.80;96.30;23.80;98988.00;;;;340686;28;83393;-89
2022/08/17 00:32:04;;;;;;;;;;;23.80;96.20;23.90;98985.00;;;;340292;28;91542;-89
2022/08/17 00:32:41;;;;;;;;;;;23.80;96.20;23.70;98988.00;;;;333894;29;83582;-89
2022/08/17 00:33:18;;;;;;;;;;;23.80;96.10;23.80;98992.00;;;;336095;28;91353;-89
2022/08/17 00:33:30;;;;;;;;;;;23.80;96.10;23.90;98991.00;;;;343494;28;83293;-89
2022/08/17 00:33:44;;;;;;;;;;;23.80;96.30;23.80;98991.00;;;;334784;28;91299;-89
2022/08/17 00:33:56;;;;;;;;;;;23.80;96.30;23.80;98989.00;;;;342051;28;82310;-89
2022/08/17 00:34:08;;;;;;;;;;;23.80;96.20;23.80;98993.00;;;;342939;28;91553;-89
2022/08/17 00:34:20;;;;;;;;;;;23.80;96.20;23.80;98989.00;;;;335172;28;83333;-89
2022/08/17 00:34:32;;;;;;;;;;;23.80;96.30;23.80;98990.00;;;;334812;29;91243;-89
2022/08/17 00:34:44;;;;;;;;;;;23.80;96.50;23.80;98987.00;;;;343376;28;83531;-89
2022/08/17 00:34:56;;;;;;;;;;;23.80;96.30;23.70;98991.00;;;;342918;28;91147;-88
2022/08/17 00:35:09;;;;;;;;;;;23.80;96.20;23.80;98988.00;;;;341967;28;83412;-89
2022/08/17 00:35:24;;;;;;;;;;;23.80;96.20;23.70;98989.00;;;;341497;28;91992;-89
2022/08/17 00:35:37;;;;;;;;;;;23.80;96.20;23.70;98992.00;;;;341973;28;82464;-89
2022/08/17 00:35:48;;;;;;;;;;;23.80;96.20;23.70;98987.00;;;;341541;28;90916;-89
2022/08/17 00:36:00;;;;;;;;;;;23.80;96.20;23.70;98984.00;;;;342058;28;83351;-89
2022/08/17 00:36:13;;;;;;;;;;;23.80;96.20;23.70;98981.00;;;;344075;28;91263;-89
2022/08/17 00:36:24;;;;;;;;;;;23.80;96.20;23.70;98988.00;;;;343291;28;83464;-89
2022/08/17 00:36:36;;;;;;;;;;;23.80;96.20;23.80;98981.00;;;;340135;28;92281;-89
2022/08/17 00:36:48;;;;;;;;;;;23.80;96.30;23.90;98988.00;;;;343406;28;82490;-89
2022/08/17 00:37:00;;;;;;;;;;;23.80;96.30;23.90;98985.00;;;;341490;28;91839;-89
2022/08/17 00:37:11;;;;;;;;;;;23.80;96.30;23.80;98980.00;;;;343425;28;82384;-89
2022/08/17 00:37:23;;;;;;;;;;;23.80;96.30;23.80;98986.00;;;;336045;28;92279;-89
2022/08/17 00:37:35;;;;;;;;;;;23.80;96.30;23.70;98983.00;;;;344684;28;83355;-89
2022/08/17 00:37:47;;;;;;;;;;;23.80;96.20;23.70;98992.00;;;;341612;28;91565;-89
2022/08/17 00:37:58;;;;;;;;;;;23.80;96.30;23.70;98984.00;;;;332650;29;83320;-90
2022/08/17 00:38:11;;;;;;;;;;;23.80;96.20;23.70;98987.00;;;;341609;28;91652;-89
2022/08/17 00:38:23;;;;;;;;;;;23.80;96.20;23.70;98989.00;;;;344712;28;82378;-89
2022/08/17 00:38:35;;;;;;;;;;;23.80;96.20;23.80;98980.00;;;;333513;29;90872;-89
2022/08/17 00:38:46;;;;;;;;;;;23.80;96.30;23.80;98982.00;;;;343347;28;83185;-89
2022/08/17 00:38:58;;;;;;;;;;;23.80;96.30;23.70;98978.00;;;;342909;28;90472;-89
2022/08/17 00:39:10;;;;;;;;;;;23.80;96.40;23.70;98988.00;;;;340631;28;83537;-89
2022/08/17 00:39:22;;;;;;;;;;;23.80;96.40;23.80;98978.00;;;;341480;28;91803;-89
2022/08/17 00:39:34;;;;;;;;;;;23.80;96.50;23.80;98985.00;;;;336498;28;83467;-89
2022/08/17 00:39:46;;;;;;;;;;;23.80;96.50;23.80;98981.00;;;;342913;28;90538;-88
2022/08/17 00:39:57;;;;;;;;;;;23.80;96.50;23.90;98984.00;;;;340506;28;82605;-89
2022/08/17 00:40:11;;;;;;;;;;;23.80;96.50;23.90;98985.00;;;;341656;28;90488;-89
2022/08/17 00:40:23;;;;;;;;;;;23.80;96.50;23.80;98983.00;;;;344614;28;83498;-89
2022/08/17 00:40:37;;;;;;;;;;;23.80;96.50;23.90;98982.00;;;;342997;28;90255;-89
2022/08/17 00:40:58;;;;;;;;;;;23.80;96.50;23.80;98984.00;;;;335264;29;82397;-89
2022/08/17 00:41:12;;;;;;;;;;;23.80;96.50;23.80;98982.00;;;;341734;28;90417;-89
2022/08/17 00:41:27;;;;;;;;;;;23.80;96.50;23.70;98990.00;;;;342048;28;83343;-89
2022/08/17 00:41:41;;;;;;;;;;;23.80;96.50;23.70;98988.00;;;;340034;28;92802;-89
2022/08/17 00:41:53;;;;;;;;;;;23.80;96.60;23.70;98987.00;;;;340717;28;82326;-89
2022/08/17 00:42:15;;;;;;;;;;;23.80;96.50;23.80;98984.00;;;;343058;28;88893;-89
2022/08/17 00:42:27;;;;;;;;;;;23.80;96.50;23.70;98986.00;;;;343425;28;82506;-89
2022/08/17 00:42:42;;;;;;;;;;;23.80;96.60;23.70;98991.00;;;;342953;28;89175;-89
2022/08/17 00:42:54;;;;;;;;;;;23.80;96.50;23.70;98987.00;;;;343267;28;82513;-89
2022/08/17 00:43:16;;;;;;;;;;;23.80;96.60;23.70;98989.00;;;;344216;28;91512;-90
2022/08/17 00:43:33;;;;;;;;;;;23.70;96.60;23.60;98984.00;;;;336497;28;83332;-89
2022/08/17 00:43:53;;;;;;;;;;;23.80;96.70;23.70;98980.00;;;;342896;28;90315;-89
2022/08/17 00:44:05;;;;;;;;;;;23.70;96.70;23.80;98977.00;;;;343407;28;82550;-89
2022/08/17 00:44:17;;;;;;;;;;;23.70;96.60;23.90;98981.00;;;;333386;29;89690;-89
2022/08/17 00:44:29;;;;;;;;;;;23.70;96.70;23.80;98989.00;;;;339345;28;83355;-89
2022/08/17 00:44:41;;;;;;;;;;;23.80;96.70;23.70;98985.00;;;;340207;28;90621;-89
2022/08/17 00:44:53;;;;;;;;;;;23.80;96.90;23.60;98986.00;;;;336596;28;82370;-89
2022/08/17 00:45:06;;;;;;;;;;;23.70;96.80;23.60;98983.00;;;;333479;29;90525;-89
2022/08/17 00:45:19;;;;;;;;;;;23.70;96.70;23.70;98986.00;;;;340656;28;83310;-89
2022/08/17 00:45:30;;;;;;;;;;;23.70;96.80;23.70;98973.00;;;;341568;28;90163;-89
2022/08/17 00:45:42;;;;;;;;;;;23.70;96.80;23.70;98981.00;;;;336389;28;83465;-89
2022/08/17 00:45:54;;;;;;;;;;;23.70;96.70;23.80;98980.00;;;;337388;28;92459;-89
2022/08/17 00:46:12;;;;;;;;;;;23.70;96.80;23.80;98983.00;;;;342113;28;83238;-89
2022/08/17 00:46:32;;;;;;;;;;;23.70;96.80;23.70;98988.00;;;;341526;28;91059;-89
2022/08/17 00:46:43;;;;;;;;;;;23.80;96.80;23.80;98979.00;;;;336520;28;82405;-89
2022/08/17 00:46:55;;;;;;;;;;;23.80;96.90;23.80;98979.00;;;;338808;28;92282;-89
2022/08/17 00:47:07;;;;;;;;;;;23.80;96.90;23.60;98984.00;;;;342046;28;82513;-89
2022/08/17 00:47:19;;;;;;;;;;;23.80;96.80;23.60;98970.00;;;;342950;28;91256;-89
2022/08/17 00:47:30;;;;;;;;;;;23.80;97.00;23.70;98978.00;;;;340725;28;83319;-89
2022/08/17 00:47:42;;;;;;;;;;;23.80;97.00;23.80;98974.00;;;;336125;28;87929;-89
2022/08/17 00:47:54;;;;;;;;;;;23.80;96.90;23.80;98972.00;;;;341815;28;83322;-89
2022/08/17 00:48:06;;;;;;;;;;;23.80;96.90;23.70;98972.00;;;;342956;28;92061;-89
2022/08/17 00:48:38;;;;;;;;;;;23.80;97.10;23.80;98974.00;;;;335262;29;82562;-89
2022/08/17 00:48:50;;;;;;;;;;;23.80;97.10;23.90;98969.00;;;;337293;28;92356;-89
2022/08/17 00:49:02;;;;;;;;;;;23.80;97.10;23.80;98976.00;;;;335175;29;83291;-89
2022/08/17 00:49:14;;;;;;;;;;;23.80;97.00;23.80;98979.00;;;;340258;28;90411;-89
2022/08/17 00:49:26;;;;;;;;;;;23.80;97.00;23.90;98975.00;;;;343446;28;82484;-89
2022/08/17 00:49:37;;;;;;;;;;;23.80;97.00;23.90;98976.00;;;;341521;28;90253;-89
2022/08/17 00:49:50;;;;;;;;;;;23.80;97.00;23.90;98976.00;;;;343327;28;82652;-89
2022/08/17 00:50:05;;;;;;;;;;;23.80;97.00;23.80;98977.00;;;;336065;28;91931;-89
2022/08/17 00:50:17;;;;;;;;;;;23.80;97.00;23.90;98975.00;;;;344655;28;83272;-89
2022/08/17 00:50:29;;;;;;;;;;;23.80;96.90;23.90;98981.00;;;;342646;28;91522;-89
2022/08/17 00:50:44;;;;;;;;;;;23.80;96.90;23.90;98980.00;;;;336315;29;83385;-89
2022/08/17 00:51:02;;;;;;;;;;;23.80;96.90;23.90;98982.00;;;;342763;28;89988;-89
2022/08/17 00:51:26;;;;;;;;;;;23.90;96.90;23.80;98983.00;;;;343410;28;83353;-89
2022/08/17 00:51:47;;;;;;;;;;;23.90;96.80;23.90;98982.00;;;;342906;28;91336;-88
2022/08/17 00:52:05;;;;;;;;;;;23.90;96.80;24.00;98982.00;;;;336522;28;83353;-89
2022/08/17 00:52:29;;;;;;;;;;;23.90;96.80;23.80;98985.00;;;;335986;28;91958;-89
2022/08/17 00:52:47;;;;;;;;;;;23.90;96.70;23.80;98981.00;;;;340663;28;83306;-89
2022/08/17 00:52:59;;;;;;;;;;;23.90;96.70;23.80;98985.00;;;;338851;28;91176;-89
2022/08/17 00:53:10;;;;;;;;;;;23.80;96.80;23.80;98983.00;;;;340576;28;83476;-89
2022/08/17 00:53:24;;;;;;;;;;;23.90;96.70;23.70;98992.00;;;;342984;28;91243;-89
2022/08/17 00:53:38;;;;;;;;;;;23.90;96.80;23.80;98993.00;;;;335197;29;82496;-88
2022/08/17 00:53:56;;;;;;;;;;;23.80;96.70;23.80;98979.00;;;;340124;28;92201;-89
2022/08/17 00:54:14;;;;;;;;;;;23.90;96.70;23.90;98990.00;;;;340722;28;83436;-89
2022/08/17 00:54:32;;;;;;;;;;;23.90;96.80;23.80;98987.00;;;;333490;29;89376;-89
2022/08/17 00:54:52;;;;;;;;;;;23.90;96.80;23.80;98984.00;;;;341985;28;82508;-89
2022/08/17 00:55:05;;;;;;;;;;;23.80;96.70;23.90;98977.00;;;;340206;28;90227;-89
2022/08/17 00:55:17;;;;;;;;;;;23.80;96.80;23.90;98977.00;;;;342012;28;83365;-89
2022/08/17 00:55:29;;;;;;;;;;;23.80;96.80;23.90;98977.00;;;;342858;28;90248;-89
2022/08/17 00:55:41;;;;;;;;;;;23.80;96.70;23.80;98977.00;;;;343317;28;82523;-89
2022/08/17 00:55:52;;;;;;;;;;;23.90;96.70;23.80;98982.00;;;;335571;28;91676;-89
2022/08/17 00:56:07;;;;;;;;;;;23.80;96.70;23.80;98978.00;;;;335237;29;82664;-89
2022/08/17 00:56:25;;;;;;;;;;;23.80;96.70;23.90;98973.00;;;;341403;28;92405;-89
2022/08/17 00:56:39;;;;;;;;;;;23.90;96.80;23.90;98975.00;;;;343422;28;83429;-89
2022/08/17 00:56:54;;;;;;;;;;;23.90;96.80;23.80;98982.00;;;;338716;28;91164;-89
2022/08/17 00:57:11;;;;;;;;;;;23.90;96.70;23.80;98973.00;;;;337661;28;83458;-89
2022/08/17 00:57:27;;;;;;;;;;;23.90;96.80;23.80;98977.00;;;;334748;29;91477;-89
2022/08/17 00:57:43;;;;;;;;;;;23.90;96.80;23.80;98977.00;;;;337783;28;83135;-89
2022/08/17 00:57:57;;;;;;;;;;;23.80;96.80;23.70;98979.00;;;;336094;28;89785;-89
2022/08/17 00:58:09;;;;;;;;;;;23.90;96.80;23.70;98979.00;;;;336556;28;82463;-89
2022/08/17 00:58:20;;;;;;;;;;;23.80;96.80;23.70;98978.00;;;;336000;28;90411;-89
2022/08/17 00:58:48;;;;;;;;;;;23.80;96.90;23.60;98969.00;;;;337870;28;83399;-89
2022/08/17 00:59:01;;;;;;;;;;;23.80;96.90;23.60;98973.00;;;;342835;28;88858;-89
2022/08/17 00:59:19;;;;;;;;;;;23.80;96.90;23.50;98972.00;;;;343319;28;83396;-89
2022/08/17 00:59:35;;;;;;;;;;;23.70;96.90;23.60;98975.00;;;;336087;28;91028;-89
2022/08/17 00:59:53;;;;;;;;;;;23.70;96.90;23.60;98971.00;;;;336572;28;82482;-89
2022/08/17 01:00:25;;;;;;;;;;;23.70;97.00;23.70;98975.00;;;;335976;28;91483;-89
2022/08/17 01:00:41;;;;;;;;;;;23.70;97.00;23.80;98973.00;;;;336319;28;83534;-89
2022/08/17 01:00:53;;;;;;;;;;;23.70;97.10;23.80;98968.00;;;;344145;28;90076;-89
2022/08/17 01:01:05;;;;;;;;;;;23.70;97.00;23.80;98973.00;;;;340362;28;83300;-88
2022/08/17 01:01:17;;;;;;;;;;;23.80;97.00;23.80;98971.00;;;;337269;28;92128;-89
2022/08/17 01:01:32;;;;;;;;;;;23.70;97.00;23.70;98977.00;;;;337782;28;82602;-89
2022/08/17 01:01:44;;;;;;;;;;;23.80;97.00;23.70;98966.00;;;;337261;28;92546;-89
2022/08/17 01:01:57;;;;;;;;;;;23.70;97.00;23.60;98968.00;;;;339075;28;83425;-89
2022/08/17 01:02:09;;;;;;;;;;;23.70;97.00;23.80;98973.00;;;;337385;28;89218;-89
2022/08/17 01:02:21;;;;;;;;;;;23.80;97.10;23.80;98968.00;;;;337748;28;83360;-89
2022/08/17 01:02:38;;;;;;;;;;;23.80;97.20;23.60;98965.00;;;;336054;28;91380;-89
2022/08/17 01:02:56;;;;;;;;;;;23.80;97.10;23.50;98967.00;;;;335306;29;82546;-89
2022/08/17 01:03:13;;;;;;;;;;;23.70;97.00;23.70;98975.00;;;;337451;28;91351;-89
2022/08/17 01:03:25;;;;;;;;;;;23.70;97.00;23.70;98966.00;;;;337763;28;83364;-89
2022/08/17 01:03:37;;;;;;;;;;;23.70;97.10;23.70;98964.00;;;;341336;28;91799;-89
2022/08/17 01:03:52;;;;;;;;;;;23.70;97.10;23.70;98969.00;;;;343387;28;82309;-89
2022/08/17 01:04:08;;;;;;;;;;;23.70;97.10;23.70;98956.00;;;;344256;28;92828;-89
2022/08/17 01:04:20;;;;;;;;;;;23.70;97.30;23.70;98968.00;;;;336461;28;83371;-89
2022/08/17 01:04:32;;;;;;;;;;;23.70;97.20;23.70;98971.00;;;;336123;28;89170;-89
2022/08/17 01:04:44;;;;;;;;;;;23.80;97.20;23.70;98963.00;;;;339135;28;82546;-89
2022/08/17 01:04:56;;;;;;;;;;;23.80;97.20;23.70;98966.00;;;;335981;28;92106;-89
2022/08/17 01:05:13;;;;;;;;;;;23.70;97.10;23.70;98954.00;;;;336486;28;83522;-89
2022/08/17 01:05:28;;;;;;;;;;;23.70;97.10;23.70;98959.00;;;;336041;28;91472;-88
2022/08/17 01:05:40;;;;;;;;;;;23.70;97.10;23.70;98962.00;;;;336467;28;83362;-89
2022/08/17 01:05:55;;;;;;;;;;;23.70;97.10;23.70;98964.00;;;;337321;28;90675;-89
2022/08/17 01:06:08;;;;;;;;;;;23.70;97.10;23.60;98956.00;;;;342006;28;82546;-88
2022/08/17 01:06:20;;;;;;;;;;;23.70;97.10;23.70;98956.00;;;;340036;28;92450;-89
2022/08/17 01:06:33;;;;;;;;;;;23.70;97.10;23.60;98955.00;;;;336487;28;83504;-89
2022/08/17 01:06:48;;;;;;;;;;;23.70;97.10;23.50;98960.00;;;;336121;28;91463;-89
2022/08/17 01:07:00;;;;;;;;;;;23.70;97.20;23.50;98952.00;;;;336444;28;83427;-88
2022/08/17 01:07:12;;;;;;;;;;;23.70;97.20;23.50;98952.00;;;;342934;28;90148;-88
2022/08/17 01:07:23;;;;;;;;;;;23.70;97.20;23.50;98952.00;;;;342144;28;82499;-89
2022/08/17 01:07:35;;;;;;;;;;;23.70;97.30;23.50;98950.00;;;;334830;29;87972;-89
2022/08/17 01:07:49;;;;;;;;;;;23.60;97.30;23.40;98951.00;;;;335155;29;83406;-89
2022/08/17 01:08:01;;;;;;;;;;;23.60;97.30;23.50;98945.00;;;;336048;28;91514;-88
2022/08/17 01:08:14;;;;;;;;;;;23.60;97.30;23.60;98943.00;;;;337829;28;83411;-89
2022/08/17 01:08:26;;;;;;;;;;;23.60;97.30;23.70;98946.00;;;;335867;28;90233;-89
2022/08/17 01:08:39;;;;;;;;;;;23.60;97.20;23.60;98941.00;;;;336517;28;83338;-89
2022/08/17 01:08:51;;;;;;;;;;;23.60;97.30;23.50;98946.00;;;;336142;28;88033;-89
2022/08/17 01:09:08;;;;;;;;;;;23.60;97.40;23.40;98944.00;;;;337725;28;83496;-89
2022/08/17 01:09:20;;;;;;;;;;;23.60;97.30;23.60;98932.00;;;;336222;28;88932;-89
2022/08/17 01:09:32;;;;;;;;;;;23.60;97.40;23.60;98938.00;;;;336494;28;83296;-88
2022/08/17 01:09:43;;;;;;;;;;;23.60;97.30;23.60;98937.00;;;;335909;28;90344;-89
2022/08/17 01:09:55;;;;;;;;;;;23.60;97.40;23.60;98935.00;;;;343167;28;83398;-89
2022/08/17 01:10:07;;;;;;;;;;;23.60;97.40;23.50;98927.00;;;;341526;28;91449;-88
2022/08/17 01:10:43;;;;;;;;;;;23.60;97.40;23.60;98938.00;;;;336500;28;82513;-89
2022/08/17 01:11:11;;;;;;;;;;;23.60;97.40;23.50;98926.00;;;;337303;28;92594;-88
2022/08/17 01:11:23;;;;;;;;;;;23.60;97.40;23.40;98921.00;;;;335185;28;82344;-89
2022/08/17 01:11:36;;;;;;;;;;;23.60;97.50;23.40;98921.00;;;;334737;28;90230;-89
2022/08/17 01:11:51;;;;;;;;;;;23.60;97.50;23.50;98923.00;;;;337793;28;82565;-89
2022/08/17 01:12:05;;;;;;;;;;;23.50;97.40;23.60;98919.00;;;;341518;28;91088;-89
2022/08/17 01:12:19;;;;;;;;;;;23.60;97.40;23.60;98921.00;;;;344557;28;83506;-89
2022/08/17 01:12:33;;;;;;;;;;;23.50;97.40;23.60;98919.00;;;;337378;28;91163;-88
2022/08/17 01:12:45;;;;;;;;;;;23.60;97.50;23.60;98917.00;;;;342000;28;83221;-88
2022/08/17 01:13:01;;;;;;;;;;;23.60;97.50;23.60;98910.00;;;;341496;28;91419;-89
2022/08/17 01:13:13;;;;;;;;;;;23.60;97.40;23.60;98909.00;;;;336459;28;82554;-90
2022/08/17 01:13:26;;;;;;;;;;;23.60;97.40;23.60;98912.00;;;;342803;28;92228;-89
2022/08/17 01:13:40;;;;;;;;;;;23.60;97.40;23.60;98911.00;;;;337578;28;83382;-88
2022/08/17 01:13:52;;;;;;;;;;;23.60;97.40;23.50;98912.00;;;;337397;28;91204;-89
2022/08/17 01:14:04;;;;;;;;;;;23.60;97.40;23.40;98916.00;;;;337794;28;82373;-89
2022/08/17 01:14:18;;;;;;;;;;;23.60;97.50;23.40;98915.00;;;;336011;28;90844;-88
2022/08/17 01:14:29;;;;;;;;;;;23.60;97.40;23.40;98913.00;;;;335157;29;83430;-88
2022/08/17 01:14:41;;;;;;;;;;;23.60;97.40;23.50;98916.00;;;;336158;28;88706;-89
2022/08/17 01:14:53;;;;;;;;;;;23.50;97.40;23.40;98913.00;;;;335192;29;82378;-89
2022/08/17 01:15:05;;;;;;;;;;;23.50;97.40;23.30;98911.00;;;;335999;28;91508;-88
2022/08/17 01:15:17;;;;;;;;;;;23.50;97.60;23.40;98917.00;;;;336474;28;83426;-88
2022/08/17 01:15:30;;;;;;;;;;;23.50;97.50;23.40;98909.00;;;;335973;28;92370;-89
2022/08/17 01:15:45;;;;;;;;;;;23.50;97.50;23.30;98911.00;;;;335129;28;83396;-89